sensor_id;sensor_type;location;lat;lon;timestamp;temperature;humidity
53926;DHT22;39836;52.754;6.866;2023-12-28T00:00:56;9.50;81.30
53926;DHT22;39836;52.754;6.866;2023-12-28T00:03:22;9.50;81.40
53926;DHT22;39836;52.754;6.866;2023-12-28T00:05:47;9.50;81.60
53926;DHT22;39836;52.754;6.866;2023-12-28T00:08:13;9.60;81.50
53926;DHT22;39836;52.754;6.866;2023-12-28T00:10:39;9.60;81.60
53926;DHT22;39836;52.754;6.866;2023-12-28T00:13:04;9.70;81.70
53926;DHT22;39836;52.754;6.866;2023-12-28T00:15:30;9.70;81.70
53926;DHT22;39836;52.754;6.866;2023-12-28T00:17:56;9.70;81.70
53926;DHT22;39836;52.754;6.866;2023-12-28T00:20:21;9.80;81.70
53926;DHT22;39836;52.754;6.866;2023-12-28T00:22:47;9.90;81.70
53926;DHT22;39836;52.754;6.866;2023-12-28T00:25:13;10.00;81.70
53926;DHT22;39836;52.754;6.866;2023-12-28T00:27:39;10.00;81.70
53926;DHT22;39836;52.754;6.866;2023-12-28T00:30:05;10.10;81.70
53926;DHT22;39836;52.754;6.866;2023-12-28T00:32:31;10.10;81.60
53926;DHT22;39836;52.754;6.866;2023-12-28T00:34:57;10.20;81.60
53926;DHT22;39836;52.754;6.866;2023-12-28T00:37:22;10.20;81.60
53926;DHT22;39836;52.754;6.866;2023-12-28T00:39:48;10.20;81.60
53926;DHT22;39836;52.754;6.866;2023-12-28T00:42:15;10.20;81.60
53926;DHT22;39836;52.754;6.866;2023-12-28T00:44:41;10.20;81.60
53926;DHT22;39836;52.754;6.866;2023-12-28T00:47:07;10.10;81.60
53926;DHT22;39836;52.754;6.866;2023-12-28T00:49:33;10.10;81.60
53926;DHT22;39836;52.754;6.866;2023-12-28T00:51:59;10.20;81.60
53926;DHT22;39836;52.754;6.866;2023-12-28T00:54:25;10.20;81.60
53926;DHT22;39836;52.754;6.866;2023-12-28T00:56:50;10.20;81.60
53926;DHT22;39836;52.754;6.866;2023-12-28T00:59:17;10.20;81.60
53926;DHT22;39836;52.754;6.866;2023-12-28T01:01:42;10.20;81.50
53926;DHT22;39836;52.754;6.866;2023-12-28T01:04:09;10.20;81.60
53926;DHT22;39836;52.754;6.866;2023-12-28T01:06:35;10.20;81.50
53926;DHT22;39836;52.754;6.866;2023-12-28T01:09:01;10.10;81.50
53926;DHT22;39836;52.754;6.866;2023-12-28T01:11:28;10.20;81.50
53926;DHT22;39836;52.754;6.866;2023-12-28T01:13:57;10.10;81.40
53926;DHT22;39836;52.754;6.866;2023-12-28T01:16:26;10.10;81.40
53926;DHT22;39836;52.754;6.866;2023-12-28T01:18:52;10.10;81.40
53926;DHT22;39836;52.754;6.866;2023-12-28T01:21:18;10.00;81.40
53926;DHT22;39836;52.754;6.866;2023-12-28T01:23:44;10.00;81.40
53926;DHT22;39836;52.754;6.866;2023-12-28T01:26:14;10.00;81.40
53926;DHT22;39836;52.754;6.866;2023-12-28T01:28:43;9.90;81.40
53926;DHT22;39836;52.754;6.866;2023-12-28T01:31:09;9.90;81.50
53926;DHT22;39836;52.754;6.866;2023-12-28T01:33:35;9.90;81.50
53926;DHT22;39836;52.754;6.866;2023-12-28T01:36:17;9.90;81.50
53926;DHT22;39836;52.754;6.866;2023-12-28T01:38:44;9.80;81.50
53926;DHT22;39836;52.754;6.866;2023-12-28T01:41:24;9.80;81.60
53926;DHT22;39836;52.754;6.866;2023-12-28T01:47:25;9.80;81.60
53926;DHT22;39836;52.754;6.866;2023-12-28T01:54:29;9.80;81.60
53926;DHT22;39836;52.754;6.866;2023-12-28T01:57:22;9.70;81.60
53926;DHT22;39836;52.754;6.866;2023-12-28T02:00:19;9.70;81.60
53926;DHT22;39836;52.754;6.866;2023-12-28T02:10:29;9.80;81.60
53926;DHT22;39836;52.754;6.866;2023-12-28T02:13:37;9.80;81.70
53926;DHT22;39836;52.754;6.866;2023-12-28T02:16:28;9.80;81.70
53926;DHT22;39836;52.754;6.866;2023-12-28T02:19:58;9.80;81.70
53926;DHT22;39836;52.754;6.866;2023-12-28T02:26:10;10.00;81.60
